createdAt,value
2023-05-09T00:00:20.313Z,63.61
2023-05-09T00:02:48.688Z,63.61
2023-05-09T00:05:17.476Z,63.59
2023-05-09T00:07:45.537Z,63.68
2023-05-09T00:10:15.259Z,63.70
2023-05-09T00:12:44.258Z,63.71
2023-05-09T00:15:13.192Z,63.83
2023-05-09T00:17:41.303Z,63.60
2023-05-09T00:20:12.509Z,63.89
2023-05-09T00:22:41.839Z,63.58
2023-05-09T00:25:11.996Z,63.72
2023-05-09T00:27:41.785Z,63.58
2023-05-09T00:30:10.806Z,63.67
2023-05-09T00:32:40.373Z,63.49
2023-05-09T00:35:10.243Z,63.58
2023-05-09T00:37:38.366Z,63.66
2023-05-09T00:40:09.447Z,63.49
2023-05-09T00:42:37.893Z,63.78
2023-05-09T00:45:08.566Z,63.54
2023-05-09T00:47:36.697Z,63.52
2023-05-09T00:50:05.265Z,63.57
2023-05-09T00:52:35.176Z,63.82
2023-05-09T00:55:03.497Z,63.71
2023-05-09T00:57:31.400Z,63.57
2023-05-09T00:59:59.260Z,63.33
2023-05-09T01:02:29.454Z,63.56
2023-05-09T01:04:58.602Z,63.60
2023-05-09T01:07:36.087Z,63.94
2023-05-09T01:10:11.047Z,64.08
2023-05-09T01:12:47.871Z,63.67
2023-05-09T01:15:25.155Z,63.76
2023-05-09T01:17:59.645Z,63.87
2023-05-09T01:20:33.839Z,63.88
2023-05-09T01:23:27.002Z,63.60
2023-05-09T01:26:04.739Z,63.77
2023-05-09T01:28:45.866Z,63.46
2023-05-09T01:31:17.354Z,63.99
2023-05-09T01:33:47.919Z,63.75
2023-05-09T01:36:18.493Z,63.63
2023-05-09T01:38:50.038Z,63.94
2023-05-09T01:41:20.058Z,63.76
2023-05-09T01:43:50.836Z,63.81
2023-05-09T01:46:22.064Z,63.74
2023-05-09T01:48:51.715Z,63.65
2023-05-09T01:51:21.676Z,63.47
2023-05-09T01:53:51.368Z,63.59
2023-05-09T01:56:21.654Z,63.73
2023-05-09T01:58:51.338Z,63.88
2023-05-09T02:01:21.964Z,63.54
2023-05-09T02:03:52.615Z,63.42
2023-05-09T02:06:23.304Z,63.58
2023-05-09T02:08:52.266Z,63.36
2023-05-09T02:11:20.182Z,63.25
2023-05-09T02:13:48.227Z,62.84
2023-05-09T02:16:17.318Z,63.16
2023-05-09T02:18:47.161Z,63.08
2023-05-09T02:21:15.288Z,63.20
2023-05-09T02:23:43.279Z,62.98
2023-05-09T02:26:11.676Z,63.01
2023-05-09T02:28:40.945Z,63.09
2023-05-09T02:31:11.118Z,63.11
2023-05-09T02:33:40.283Z,63.15
2023-05-09T02:36:10.968Z,63.23
2023-05-09T02:38:39.103Z,63.29
2023-05-09T02:41:07.330Z,63.22
2023-05-09T02:43:35.395Z,63.25
2023-05-09T02:46:03.696Z,63.17
2023-05-09T02:48:31.677Z,63.09
2023-05-09T02:50:59.713Z,63.24
2023-05-09T02:53:29.385Z,63.02
2023-05-09T02:55:57.427Z,62.98
2023-05-09T02:58:25.530Z,62.89
2023-05-09T03:00:53.789Z,62.86
2023-05-09T03:03:22.539Z,62.91
2023-05-09T03:05:50.792Z,62.86
2023-05-09T03:08:18.874Z,62.75
2023-05-09T03:10:48.952Z,62.78
2023-05-09T03:13:17.090Z,62.88
2023-05-09T03:15:45.201Z,62.86
2023-05-09T03:18:13.266Z,62.99
2023-05-09T03:20:41.330Z,62.89
2023-05-09T03:23:10.183Z,62.81
2023-05-09T03:25:38.263Z,62.92
2023-05-09T03:28:08.232Z,62.72
2023-05-09T03:30:36.778Z,62.60
2023-05-09T03:33:06.403Z,62.80
2023-05-09T03:35:34.539Z,62.70
2023-05-09T03:38:02.625Z,62.60
2023-05-09T03:40:30.689Z,62.53
2023-05-09T03:42:58.739Z,62.52
2023-05-09T03:45:28.235Z,62.67
2023-05-09T03:47:56.385Z,62.38
2023-05-09T03:50:24.505Z,62.57
2023-05-09T03:52:52.513Z,62.53
2023-05-09T03:55:20.573Z,62.47
2023-05-09T03:57:48.727Z,62.55
2023-05-09T04:00:17.535Z,62.59
2023-05-09T04:02:47.510Z,62.43
2023-05-09T04:05:16.214Z,62.65
2023-05-09T04:07:44.784Z,62.58
2023-05-09T04:10:13.300Z,62.49
2023-05-09T04:12:42.013Z,62.63
2023-05-09T04:15:11.434Z,62.57
2023-05-09T04:17:39.699Z,62.27
2023-05-09T04:20:11.219Z,62.41
2023-05-09T04:22:39.169Z,62.57
2023-05-09T04:25:08.571Z,62.50
2023-05-09T04:27:36.537Z,62.52
2023-05-09T04:30:05.207Z,62.68
2023-05-09T04:32:33.156Z,62.63
2023-05-09T04:35:01.410Z,62.52
2023-05-09T04:37:31.574Z,62.29
2023-05-09T04:39:59.970Z,62.43
2023-05-09T04:42:28.036Z,62.46
2023-05-09T04:44:56.105Z,62.45
2023-05-09T04:47:24.154Z,62.48
2023-05-09T04:49:52.263Z,62.43
2023-05-09T04:52:20.485Z,62.44
2023-05-09T04:54:49.961Z,62.35
2023-05-09T04:57:19.066Z,62.61
2023-05-09T04:59:47.236Z,62.52
2023-05-09T05:02:20.529Z,62.40
2023-05-09T05:05:21.902Z,62.46
2023-05-09T05:07:53.629Z,62.47
2023-05-09T05:11:19.642Z,62.17
2023-05-09T05:14:13.276Z,62.41
2023-05-09T05:16:41.624Z,62.36
2023-05-09T05:19:10.423Z,62.39
2023-05-09T05:21:39.090Z,62.54
2023-05-09T05:24:07.964Z,62.36
2023-05-09T05:28:59.276Z,62.36
2023-05-09T05:30:18.697Z,62.07
2023-05-09T05:32:47.235Z,62.41
2023-05-09T05:35:18.442Z,62.32
2023-05-09T05:41:57.642Z,62.50
2023-05-09T05:44:53.192Z,62.58
2023-05-09T05:47:24.314Z,62.65
2023-05-09T05:49:54.021Z,62.51
2023-05-09T05:52:24.065Z,62.56
2023-05-09T05:54:52.330Z,62.82
2023-05-09T05:57:29.203Z,62.87
2023-05-09T05:59:57.564Z,63.47
2023-05-09T06:02:27.339Z,63.29
2023-05-09T06:04:56.129Z,63.38
2023-05-09T06:07:24.389Z,63.37
2023-05-09T06:09:53.081Z,63.49
2023-05-09T06:12:27.991Z,63.53
2023-05-09T06:14:57.192Z,63.66
2023-05-09T06:17:27.290Z,63.83
2023-05-09T06:19:55.659Z,63.79
2023-05-09T06:22:23.679Z,63.96
2023-05-09T06:24:51.648Z,64.39
2023-05-09T06:27:19.861Z,64.20
2023-05-09T06:29:47.991Z,64.12
2023-05-09T06:32:18.725Z,64.49
2023-05-09T06:34:48.319Z,64.50
2023-05-09T06:37:16.316Z,64.46
2023-05-09T06:39:44.386Z,64.52
2023-05-09T06:42:12.304Z,64.61
2023-05-09T06:44:40.471Z,64.53
2023-05-09T06:47:08.473Z,64.83
2023-05-09T06:49:36.914Z,64.85
2023-05-09T06:52:06.387Z,64.51
2023-05-09T06:54:34.415Z,64.89
2023-05-09T06:57:02.446Z,64.46
2023-05-09T06:59:30.352Z,64.23
2023-05-09T07:01:58.947Z,64.23
2023-05-09T07:04:27.108Z,64.56
2023-05-09T07:06:55.039Z,64.46
2023-05-09T07:09:27.969Z,64.33
2023-05-09T07:11:56.144Z,64.30
2023-05-09T07:14:24.103Z,64.19
2023-05-09T07:16:53.700Z,64.45
2023-05-09T07:19:23.302Z,64.42
2023-05-09T07:21:51.314Z,64.59
2023-05-09T07:24:19.374Z,64.37
2023-05-09T07:26:48.973Z,64.63
2023-05-09T07:29:17.695Z,64.63
2023-05-09T07:31:45.961Z,64.28
2023-05-09T07:34:14.099Z,64.50
2023-05-09T07:36:42.171Z,64.53
2023-05-09T07:39:10.819Z,64.52
2023-05-09T07:41:38.936Z,64.47
2023-05-09T07:44:09.606Z,64.62
2023-05-09T07:46:38.652Z,64.59
2023-05-09T07:49:06.726Z,64.38
2023-05-09T07:51:34.810Z,64.74
2023-05-09T07:54:02.863Z,64.67
2023-05-09T07:56:31.033Z,64.93
2023-05-09T07:58:59.019Z,64.21
2023-05-09T08:01:28.417Z,64.31
2023-05-09T08:03:56.423Z,63.98
2023-05-09T08:06:24.762Z,63.71
2023-05-09T08:08:52.646Z,63.92
2023-05-09T08:11:20.585Z,63.90
2023-05-09T08:13:48.455Z,64.01
2023-05-09T08:16:18.101Z,63.67
2023-05-09T08:18:47.580Z,64.00
2023-05-09T08:21:15.578Z,64.22
2023-05-09T08:23:43.482Z,64.43
2023-05-09T08:26:11.376Z,64.12
2023-05-09T08:28:39.380Z,64.03
2023-05-09T08:31:07.341Z,64.14
2023-05-09T08:33:35.325Z,63.82
2023-05-09T08:36:05.009Z,64.13
2023-05-09T08:38:32.859Z,64.20
2023-05-09T08:41:04.075Z,63.59
2023-05-09T08:43:34.533Z,63.99
2023-05-09T08:46:05.843Z,63.76
2023-05-09T08:48:37.670Z,64.13
2023-05-09T08:51:08.657Z,64.43
2023-05-09T08:53:37.225Z,64.63
2023-05-09T08:56:05.557Z,64.52
2023-05-09T08:58:34.648Z,64.65
2023-05-09T09:01:06.491Z,64.93
2023-05-09T09:03:34.795Z,64.63
2023-05-09T09:06:03.080Z,64.42
2023-05-09T09:08:32.496Z,64.19
2023-05-09T09:11:00.549Z,64.17
2023-05-09T09:13:29.856Z,64.33
2023-05-09T09:16:00.444Z,63.92
2023-05-09T09:18:31.290Z,63.33
2023-05-09T09:21:06.275Z,63.35
2023-05-09T09:23:35.976Z,63.57
2023-05-09T09:26:04.984Z,63.69
2023-05-09T09:28:33.030Z,63.86
2023-05-09T09:31:01.393Z,64.01
2023-05-09T09:33:30.739Z,64.13
2023-05-09T09:35:59.835Z,63.97
2023-05-09T09:38:28.046Z,64.02
2023-05-09T09:40:58.426Z,63.81
2023-05-09T09:43:29.864Z,63.84
2023-05-09T09:45:58.308Z,63.77
2023-05-09T09:48:26.915Z,64.08
2023-05-09T09:50:57.109Z,63.73
2023-05-09T09:53:30.255Z,63.76
2023-05-09T09:56:00.126Z,63.76
2023-05-09T09:58:28.383Z,63.78
2023-05-09T10:01:07.785Z,64.01
2023-05-09T10:03:40.958Z,64.13
2023-05-09T10:06:12.381Z,63.83
2023-05-09T10:08:40.549Z,63.94
2023-05-09T10:11:10.984Z,64.30
2023-05-09T10:13:39.408Z,64.36
2023-05-09T10:16:09.805Z,64.29
2023-05-09T10:18:39.050Z,63.96
2023-05-09T10:21:11.152Z,63.87
2023-05-09T10:23:43.869Z,63.62
2023-05-09T10:26:18.663Z,63.92
2023-05-09T10:28:49.085Z,63.73
2023-05-09T10:31:23.033Z,63.60
2023-05-09T10:33:52.247Z,63.41
2023-05-09T10:36:21.844Z,63.48
2023-05-09T10:38:50.984Z,63.51
2023-05-09T10:41:22.055Z,62.93
2023-05-09T10:43:50.207Z,63.58
2023-05-09T10:46:18.840Z,63.50
2023-05-09T10:48:48.039Z,63.34
2023-05-09T10:51:16.499Z,63.50
2023-05-09T10:53:46.067Z,63.29
2023-05-09T10:56:26.732Z,63.70
2023-05-09T10:58:55.194Z,62.72
2023-05-09T11:01:35.615Z,62.92
2023-05-09T11:04:09.816Z,63.43
2023-05-09T11:06:49.555Z,64.02
2023-05-09T11:09:28.898Z,63.79
2023-05-09T11:11:59.568Z,62.71
2023-05-09T11:14:31.786Z,62.40
2023-05-09T11:17:01.024Z,62.65
2023-05-09T11:19:36.806Z,62.62
2023-05-09T11:22:14.174Z,61.63
2023-05-09T11:24:47.012Z,61.78
2023-05-09T11:27:21.513Z,62.08
2023-05-09T11:29:52.769Z,61.77
2023-05-09T11:32:21.594Z,62.11
2023-05-09T11:34:51.111Z,61.50
2023-05-09T11:37:19.456Z,61.46
2023-05-09T11:39:58.855Z,61.97
2023-05-09T11:42:29.465Z,61.37
2023-05-09T11:44:58.592Z,61.05
2023-05-09T11:47:28.881Z,60.67
2023-05-09T11:49:56.901Z,60.44
2023-05-09T11:52:25.822Z,59.80
2023-05-09T11:54:53.750Z,59.53
2023-05-09T11:57:22.320Z,59.52
2023-05-09T11:59:52.262Z,60.02
2023-05-09T12:02:20.318Z,59.19
2023-05-09T12:04:48.547Z,59.56
2023-05-09T12:07:17.256Z,59.37
2023-05-09T12:09:45.271Z,58.61
2023-05-09T12:12:14.426Z,58.05
2023-05-09T12:14:42.730Z,57.93
2023-05-09T12:17:12.295Z,57.83
2023-05-09T12:19:40.501Z,57.86
2023-05-09T12:22:09.950Z,58.74
2023-05-09T12:24:38.210Z,58.91
2023-05-09T12:27:07.945Z,57.89
2023-05-09T12:29:36.630Z,57.33
2023-05-09T12:32:04.712Z,56.83
2023-05-09T12:34:34.259Z,56.37
2023-05-09T12:37:03.759Z,57.32
2023-05-09T12:39:31.882Z,56.68
2023-05-09T12:42:01.960Z,56.26
2023-05-09T12:44:30.367Z,55.68
2023-05-09T12:46:59.784Z,55.71
2023-05-09T12:49:28.272Z,54.92
2023-05-09T12:52:01.662Z,55.26
2023-05-09T12:54:31.234Z,55.37
2023-05-09T12:56:59.783Z,55.15
2023-05-09T12:59:29.033Z,56.14
2023-05-09T13:01:59.040Z,56.08
2023-05-09T13:04:28.150Z,57.13
2023-05-09T13:07:00.054Z,57.29
2023-05-09T13:09:28.717Z,57.95
2023-05-09T13:11:56.889Z,58.56
2023-05-09T13:14:25.340Z,58.84
2023-05-09T13:16:53.288Z,58.83
2023-05-09T13:19:21.563Z,59.04
2023-05-09T13:21:49.609Z,59.43
2023-05-09T13:24:18.962Z,59.60
2023-05-09T13:26:46.888Z,59.87
2023-05-09T13:29:15.079Z,60.43
2023-05-09T13:31:43.182Z,60.77
2023-05-09T13:34:11.115Z,60.49
2023-05-09T13:36:38.935Z,60.66
2023-05-09T13:39:06.743Z,60.78
2023-05-09T13:41:38.150Z,60.84
2023-05-09T13:44:06.577Z,60.97
2023-05-09T13:46:35.080Z,61.18
2023-05-09T13:49:03.075Z,61.45
2023-05-09T13:51:31.039Z,61.62
2023-05-09T13:53:58.884Z,61.42
2023-05-09T13:56:26.868Z,60.93
2023-05-09T13:58:56.113Z,60.83
2023-05-09T14:01:24.194Z,60.06
2023-05-09T14:03:52.542Z,59.84
2023-05-09T14:06:20.542Z,59.45
2023-05-09T14:08:48.567Z,58.29
2023-05-09T14:11:16.541Z,57.48
2023-05-09T14:13:44.717Z,57.60
2023-05-09T14:16:14.685Z,57.49
2023-05-09T14:18:42.725Z,58.09
2023-05-09T14:21:10.725Z,58.00
2023-05-09T14:23:38.633Z,58.41
2023-05-09T14:26:06.731Z,58.65
2023-05-09T14:28:34.637Z,58.71
2023-05-09T14:31:03.342Z,58.36
2023-05-09T14:33:34.929Z,58.58
2023-05-09T14:36:04.206Z,58.45
2023-05-09T14:38:33.369Z,58.55
2023-05-09T14:41:02.382Z,58.27
2023-05-09T14:43:30.454Z,57.88
2023-05-09T14:45:58.509Z,58.02
2023-05-09T14:48:26.525Z,58.22
2023-05-09T14:50:57.042Z,58.14
2023-05-09T14:53:25.473Z,58.10
2023-05-09T14:55:53.485Z,57.85
2023-05-09T14:58:22.288Z,58.05
2023-05-09T15:00:53.027Z,58.21
2023-05-09T15:03:21.206Z,58.48
2023-05-09T15:05:50.496Z,58.72
2023-05-09T15:08:20.101Z,58.31
2023-05-09T15:10:48.562Z,58.44
2023-05-09T15:13:16.715Z,58.95
2023-05-09T15:15:44.665Z,59.09
2023-05-09T15:18:13.451Z,58.85
2023-05-09T15:20:41.951Z,58.77
2023-05-09T15:23:10.116Z,58.81
2023-05-09T15:25:41.569Z,59.33
2023-05-09T15:28:09.520Z,59.63
2023-05-09T15:30:39.261Z,59.57
2023-05-09T15:33:07.325Z,59.73
2023-05-09T15:35:35.366Z,59.59
2023-05-09T15:38:03.437Z,59.48
2023-05-09T15:40:31.532Z,58.83
2023-05-09T15:43:07.392Z,58.95
2023-05-09T15:45:37.911Z,59.41
2023-05-09T15:48:06.520Z,59.44
2023-05-09T15:50:34.514Z,59.63
2023-05-09T15:53:02.468Z,59.80
2023-05-09T15:55:32.853Z,60.00
2023-05-09T15:58:03.060Z,59.99
2023-05-09T16:00:31.243Z,60.41
2023-05-09T16:02:59.697Z,60.26
2023-05-09T16:05:27.996Z,59.89
2023-05-09T16:07:56.101Z,60.21
2023-05-09T16:10:24.144Z,59.72
2023-05-09T16:12:52.265Z,59.48
2023-05-09T16:15:22.785Z,59.15
2023-05-09T16:17:50.860Z,59.03
2023-05-09T16:20:18.977Z,58.65
2023-05-09T16:22:46.941Z,58.24
2023-05-09T16:25:15.011Z,58.02
2023-05-09T16:27:43.200Z,57.93
2023-05-09T16:30:11.967Z,58.42
2023-05-09T16:32:42.455Z,58.83
2023-05-09T16:35:11.032Z,58.98
2023-05-09T16:37:39.532Z,58.93
2023-05-09T16:40:08.498Z,58.17
2023-05-09T16:42:36.700Z,57.73
2023-05-09T16:45:05.460Z,57.39
2023-05-09T16:47:33.676Z,56.95
2023-05-09T16:50:03.163Z,57.21
2023-05-09T16:52:31.384Z,56.73
2023-05-09T16:55:01.350Z,56.90
2023-05-09T16:57:29.332Z,57.25
2023-05-09T16:59:58.558Z,57.34
2023-05-09T17:02:26.707Z,57.97
2023-05-09T17:04:54.939Z,57.98
2023-05-09T17:07:24.465Z,58.38
2023-05-09T17:09:55.265Z,58.23
2023-05-09T17:12:23.594Z,58.48
2023-05-09T17:14:51.674Z,58.28
2023-05-09T17:17:19.949Z,58.18
2023-05-09T17:19:48.732Z,57.84
2023-05-09T17:22:17.120Z,58.06
2023-05-09T17:24:46.744Z,57.81
2023-05-09T17:27:15.273Z,58.06
2023-05-09T17:29:43.409Z,57.76
2023-05-09T17:32:12.334Z,57.65
2023-05-09T17:34:41.003Z,57.85
2023-05-09T17:40:00.407Z,57.07
2023-05-09T17:42:32.883Z,57.25
2023-05-09T17:45:01.037Z,57.04
2023-05-09T17:47:29.238Z,57.38
2023-05-09T17:49:57.498Z,57.88
2023-05-09T17:52:25.792Z,58.05
2023-05-09T17:54:55.486Z,58.36
2023-05-09T17:57:23.672Z,58.10
2023-05-09T17:59:52.313Z,58.18
2023-05-09T18:02:24.066Z,58.49
2023-05-09T18:04:53.635Z,58.54
2023-05-09T18:07:21.625Z,58.60
2023-05-09T18:09:49.813Z,58.50
2023-05-09T18:12:19.418Z,58.22
2023-05-09T18:14:47.762Z,57.89
2023-05-09T18:17:15.967Z,58.02
2023-05-09T18:19:43.965Z,57.97
2023-05-09T18:22:12.113Z,58.55
2023-05-09T18:24:40.123Z,58.77
2023-05-09T18:27:08.193Z,58.67
2023-05-09T18:29:37.856Z,58.45
2023-05-09T18:32:06.922Z,58.65
2023-05-09T18:34:34.920Z,58.75
2023-05-09T18:37:03.011Z,58.65
2023-05-09T18:39:31.093Z,58.74
2023-05-09T18:41:59.152Z,59.43
2023-05-09T18:44:27.253Z,59.60
2023-05-09T18:46:58.038Z,59.23
2023-05-09T18:49:26.389Z,58.35
2023-05-09T18:51:55.144Z,59.14
2023-05-09T18:54:23.523Z,59.18
2023-05-09T18:56:51.552Z,57.78
2023-05-09T18:59:19.621Z,57.63
2023-05-09T19:01:47.566Z,57.54
2023-05-09T19:04:19.667Z,57.68
2023-05-09T19:06:47.986Z,57.74
2023-05-09T19:09:15.985Z,57.81
2023-05-09T19:11:45.435Z,57.96
2023-05-09T19:14:13.573Z,58.54
2023-05-09T19:16:43.047Z,58.49
2023-05-09T19:19:11.360Z,58.61
2023-05-09T19:21:41.125Z,58.88
2023-05-09T19:24:09.878Z,59.07
2023-05-09T19:26:38.198Z,58.96
2023-05-09T19:29:08.262Z,58.84
2023-05-09T19:31:37.347Z,59.05
2023-05-09T19:34:06.122Z,58.96
2023-05-09T19:36:34.236Z,58.88
2023-05-09T19:39:05.276Z,58.99
2023-05-09T19:41:34.112Z,59.33
2023-05-09T19:44:02.325Z,59.15
2023-05-09T19:46:30.796Z,59.41
2023-05-09T19:48:58.832Z,59.62
2023-05-09T19:51:27.060Z,59.35
2023-05-09T19:53:56.310Z,59.58
2023-05-09T19:56:25.929Z,59.57
2023-05-09T19:58:55.021Z,59.52
2023-05-09T20:01:23.169Z,59.75
2023-05-09T20:03:52.330Z,59.83
2023-05-09T20:06:20.803Z,59.89
2023-05-09T20:08:51.414Z,59.92
2023-05-09T20:11:19.917Z,60.17
2023-05-09T20:13:49.456Z,59.85
2023-05-09T20:16:17.834Z,60.04
2023-05-09T20:18:46.061Z,60.13
2023-05-09T20:21:14.861Z,60.02
2023-05-09T20:23:42.983Z,60.05
2023-05-09T20:26:11.424Z,60.47
2023-05-09T20:28:39.699Z,60.24
2023-05-09T20:31:09.195Z,60.26
2023-05-09T20:33:37.386Z,60.31
2023-05-09T20:36:09.952Z,60.54
2023-05-09T20:38:38.749Z,60.36
2023-05-09T20:41:06.805Z,60.34
2023-05-09T20:43:34.877Z,60.51
2023-05-09T20:46:02.962Z,60.57
2023-05-09T20:48:32.777Z,60.36
2023-05-09T20:51:00.900Z,60.63
2023-05-09T20:53:31.759Z,60.77
2023-05-09T20:56:00.144Z,60.61
2023-05-09T20:58:28.301Z,60.78
2023-05-09T21:00:56.524Z,60.49
2023-05-09T21:03:24.687Z,60.55
2023-05-09T21:05:55.246Z,60.62
2023-05-09T21:08:24.143Z,60.61
2023-05-09T21:10:54.407Z,60.29
2023-05-09T21:13:22.652Z,60.44
2023-05-09T21:15:51.294Z,59.97
2023-05-09T21:18:20.237Z,60.20
2023-05-09T21:20:48.665Z,60.05
2023-05-09T21:23:19.120Z,60.36
2023-05-09T21:25:47.349Z,60.35
2023-05-09T21:28:17.463Z,60.16
2023-05-09T21:30:45.725Z,60.48
2023-05-09T21:33:13.947Z,60.60
2023-05-09T21:35:41.955Z,60.67
2023-05-09T21:38:10.243Z,60.58
2023-05-09T21:40:40.708Z,60.55
2023-05-09T21:43:09.077Z,60.66
2023-05-09T21:45:37.317Z,60.75
2023-05-09T21:48:05.872Z,60.83
2023-05-09T21:50:33.984Z,60.92
2023-05-09T21:53:01.984Z,61.04
2023-05-09T21:55:29.920Z,61.16
2023-05-09T21:57:59.330Z,60.97
2023-05-09T22:00:27.350Z,61.18
2023-05-09T22:02:55.410Z,60.55
2023-05-09T22:05:24.872Z,60.83
2023-05-09T22:07:52.852Z,60.70
2023-05-09T22:10:22.384Z,60.56
2023-05-09T22:12:50.591Z,60.44
2023-05-09T22:15:20.474Z,60.15
2023-05-09T22:17:48.543Z,60.71
2023-05-09T22:20:17.208Z,60.64
2023-05-09T22:22:45.690Z,60.92
2023-05-09T22:25:13.676Z,60.75
2023-05-09T22:27:41.776Z,60.98
2023-05-09T22:30:12.503Z,61.02
2023-05-09T22:32:42.351Z,61.06
2023-05-09T22:35:12.008Z,61.04
2023-05-09T22:37:40.354Z,61.06
2023-05-09T22:40:09.619Z,61.02
2023-05-09T22:42:37.644Z,61.17
2023-05-09T22:45:06.601Z,61.19
2023-05-09T22:47:34.907Z,60.63
2023-05-09T22:50:04.353Z,60.81
2023-05-09T22:52:32.262Z,61.22
2023-05-09T22:55:00.229Z,60.77
2023-05-09T22:57:28.139Z,61.13
2023-05-09T22:59:56.597Z,60.73
2023-05-09T23:02:24.712Z,61.05
2023-05-09T23:04:52.850Z,61.04
2023-05-09T23:07:22.401Z,61.02
2023-05-09T23:09:50.922Z,60.73
2023-05-09T23:12:19.926Z,60.99
2023-05-09T23:14:48.384Z,60.64
2023-05-09T23:17:16.470Z,60.70
2023-05-09T23:19:44.961Z,60.65
2023-05-09T23:22:13.959Z,60.80
2023-05-09T23:24:43.799Z,60.95
2023-05-09T23:27:11.960Z,60.88
2023-05-09T23:29:39.987Z,60.82
2023-05-09T23:32:08.003Z,60.75
2023-05-09T23:34:37.016Z,60.67
2023-05-09T23:37:05.373Z,61.15
2023-05-09T23:39:33.999Z,60.91
2023-05-09T23:42:04.179Z,61.00
2023-05-09T23:44:32.329Z,60.86
2023-05-09T23:47:02.242Z,60.75
2023-05-09T23:49:30.344Z,60.87
2023-05-09T23:51:58.357Z,60.99
2023-05-09T23:54:27.083Z,60.95
2023-05-09T23:56:56.416Z,61.05
2023-05-09T23:59:25.952Z,60.77
